createdAt,value
2018-04-28T14:51:09.096Z,23.78
2018-04-28T14:53:38.014Z,24.30
2018-04-28T14:56:07.046Z,23.42
2018-04-28T14:58:35.969Z,23.50
2018-04-28T15:01:04.905Z,24.38
2018-04-28T15:03:33.890Z,24.11
2018-04-28T15:06:02.946Z,24.00
2018-04-28T15:08:31.857Z,23.04
2018-04-28T15:11:00.823Z,22.64
2018-04-28T15:13:29.744Z,22.75
2018-04-28T15:15:58.699Z,23.01
2018-04-28T15:18:27.684Z,22.96
2018-04-28T15:20:56.603Z,23.32
2018-04-28T15:23:25.625Z,23.21
2018-04-28T15:25:54.609Z,23.26
2018-04-28T15:28:23.700Z,23.25
2018-04-28T15:30:52.759Z,23.14
2018-04-28T15:33:21.729Z,22.83
2018-04-28T15:35:50.639Z,23.03
2018-04-28T15:38:19.909Z,22.93
2018-04-28T15:40:48.821Z,22.82
2018-04-28T15:43:17.764Z,23.17
2018-04-28T15:45:46.740Z,23.69
2018-04-28T15:48:15.645Z,23.79
2018-04-28T15:50:44.547Z,23.05
2018-04-28T15:53:13.810Z,22.53
2018-04-28T15:55:42.713Z,22.61
2018-04-28T15:58:11.658Z,22.29
2018-04-28T16:00:41.209Z,22.75
2018-04-28T16:03:10.126Z,23.28
2018-04-28T16:05:39.038Z,23.18
2018-04-28T16:08:08.079Z,23.43
2018-04-28T16:10:36.983Z,24.05
2018-04-28T16:13:06.389Z,24.07
2018-04-28T16:15:35.381Z,24.93
2018-04-28T16:18:06.053Z,25.61
2018-04-28T16:20:37.022Z,25.93
2018-04-28T16:23:07.909Z,26.27
2018-04-28T16:25:38.990Z,26.46
2018-04-28T16:28:10.093Z,27.02
2018-04-28T16:30:41.104Z,26.79
2018-04-28T16:33:11.996Z,26.75
2018-04-28T16:35:43.024Z,26.81
2018-04-28T16:38:13.943Z,27.16
2018-04-28T16:40:45.158Z,27.32
2018-04-28T16:43:15.669Z,27.47
2018-04-28T16:45:46.417Z,27.78
2018-04-28T16:48:17.097Z,27.92
2018-04-28T16:50:48.325Z,28.13
2018-04-28T16:53:18.748Z,28.38
2018-04-28T16:55:50.304Z,28.55
2018-04-28T16:58:20.310Z,28.97
2018-04-28T17:00:51.347Z,29.27
2018-04-28T17:03:22.047Z,29.60
2018-04-28T17:05:53.391Z,29.98
2018-04-28T17:08:24.038Z,30.30
2018-04-28T17:10:55.105Z,30.48
2018-04-28T17:13:25.968Z,30.67
2018-04-28T17:15:56.957Z,30.93
2018-04-28T17:18:27.553Z,31.16
2018-04-28T17:20:58.322Z,31.39
2018-04-28T17:23:29.086Z,31.72
2018-04-28T17:25:59.724Z,32.00
2018-04-28T17:28:30.306Z,32.34
2018-04-28T17:31:01.097Z,32.64
2018-04-28T17:33:31.974Z,32.91
2018-04-28T17:36:03.162Z,33.34
2018-04-28T17:38:34.101Z,33.65
2018-04-28T17:41:05.089Z,33.89
2018-04-28T17:43:36.075Z,34.16
2018-04-28T17:46:06.910Z,34.26
2018-04-28T17:48:38.056Z,34.54
2018-04-28T17:51:09.493Z,34.55
2018-04-28T17:53:40.162Z,34.51
2018-04-28T17:56:10.826Z,34.77
2018-04-28T17:58:41.558Z,34.95
2018-04-28T18:01:12.353Z,35.07
2018-04-28T18:03:43.060Z,35.41
2018-04-28T18:06:14.144Z,35.78
2018-04-28T18:08:45.047Z,36.08
2018-04-28T18:11:16.040Z,36.29
2018-04-28T18:13:47.309Z,36.46
2018-04-28T18:16:18.222Z,37.03
2018-04-28T18:18:49.061Z,37.62
2018-04-28T18:21:20.079Z,37.79
2018-04-28T18:23:51.038Z,37.96
2018-04-28T18:26:22.189Z,37.88
2018-04-28T18:28:53.053Z,38.03
2018-04-28T18:31:24.657Z,38.30
2018-04-28T18:33:55.215Z,38.43
2018-04-28T18:36:26.119Z,38.43
2018-04-28T18:38:57.167Z,38.47
2018-04-28T18:41:28.130Z,38.66
2018-04-28T18:44:00.473Z,38.86
2018-04-28T18:46:30.657Z,39.07
2018-04-28T18:49:01.436Z,39.45
2018-04-28T18:51:32.220Z,40.23
2018-04-28T18:54:03.058Z,40.44
2018-04-28T18:56:34.062Z,40.54
2018-04-28T18:59:04.538Z,41.34
2018-04-28T19:01:36.313Z,41.42
2018-04-28T19:04:06.811Z,41.39
2018-04-28T19:06:37.355Z,41.55
2018-04-28T19:09:08.111Z,41.57
2018-04-28T19:11:39.369Z,41.60
2018-04-28T19:14:10.566Z,41.72
2018-04-28T19:16:40.581Z,41.97
2018-04-28T19:19:11.308Z,42.05
2018-04-28T19:21:42.203Z,42.06
2018-04-28T19:24:13.430Z,42.26
2018-04-28T19:26:45.064Z,42.40
2018-04-28T19:29:15.731Z,42.47
2018-04-28T19:31:46.590Z,42.44
2018-04-28T19:34:17.425Z,42.29
2018-04-28T19:36:48.142Z,42.24
2018-04-28T19:39:19.183Z,42.17
2018-04-28T19:41:51.032Z,42.27
2018-04-28T19:44:21.633Z,42.33
2018-04-28T19:46:52.406Z,42.35
2018-04-28T19:49:23.154Z,42.26
2018-04-28T19:51:53.994Z,42.22
2018-04-28T19:54:25.139Z,42.23
2018-04-28T19:56:56.078Z,42.18
2018-04-28T19:59:27.086Z,42.16
2018-04-28T20:01:58.149Z,42.24
2018-04-28T20:04:28.807Z,42.33
2018-04-28T20:06:59.770Z,42.35
2018-04-28T20:09:30.482Z,42.40
2018-04-28T20:12:01.783Z,42.51
2018-04-28T20:14:33.410Z,42.63
2018-04-28T20:17:03.754Z,42.75
2018-04-28T20:19:34.314Z,42.95
2018-04-28T20:22:16.314Z,43.20
2018-04-28T20:24:56.490Z,43.41
2018-04-28T20:27:25.764Z,43.59
2018-04-28T20:29:54.715Z,43.88
2018-04-28T20:32:23.968Z,44.30
2018-04-28T20:34:53.993Z,44.52
2018-04-28T20:37:23.533Z,44.95
2018-04-28T20:39:52.797Z,45.49
2018-04-28T20:42:22.407Z,45.96
2018-04-28T20:44:51.787Z,46.44
2018-04-28T20:47:20.862Z,46.84
2018-04-28T20:49:49.847Z,47.20
2018-04-28T20:52:18.902Z,47.62
2018-04-28T20:54:47.849Z,47.97
2018-04-28T20:57:16.825Z,48.18
2018-04-28T20:59:47.657Z,48.38
2018-04-28T21:02:18.314Z,48.25
2018-04-28T21:04:49.220Z,48.20
2018-04-28T21:07:20.111Z,48.30
2018-04-28T21:09:51.186Z,48.30
2018-04-28T21:12:22.175Z,48.32
2018-04-28T21:14:53.161Z,48.23
2018-04-28T21:17:24.237Z,48.16
2018-04-28T21:19:55.139Z,48.20
2018-04-28T21:22:26.256Z,48.18
2018-04-28T21:24:57.408Z,48.33
2018-04-28T21:27:28.235Z,48.35
2018-04-28T21:29:59.154Z,48.85
2018-04-28T21:32:30.204Z,49.24
2018-04-28T21:35:01.125Z,49.28
2018-04-28T21:37:32.121Z,49.25
2018-04-28T21:40:03.103Z,49.14
2018-04-28T21:42:33.806Z,49.03
2018-04-28T21:45:04.512Z,49.66
2018-04-28T21:47:35.498Z,49.02
2018-04-28T21:50:06.210Z,49.14
2018-04-28T21:52:37.201Z,49.10
2018-04-28T21:55:08.137Z,49.42
2018-04-28T21:57:39.182Z,49.51
2018-04-28T22:00:10.154Z,50.05
2018-04-28T22:02:41.522Z,49.59
2018-04-28T22:05:12.303Z,49.55
2018-04-28T22:07:43.180Z,49.41
2018-04-28T22:10:14.125Z,49.40
2018-04-28T22:12:45.092Z,49.34
2018-04-28T22:15:16.517Z,49.74
2018-04-28T22:17:47.437Z,49.42
2018-04-28T22:20:18.154Z,50.10
2018-04-28T22:22:48.744Z,49.81
2018-04-28T22:25:19.879Z,50.09
2018-04-28T22:27:50.683Z,49.79
2018-04-28T22:30:21.378Z,49.75
2018-04-28T22:32:52.119Z,49.69
2018-04-28T22:35:22.662Z,49.96
2018-04-28T22:37:53.427Z,50.07
2018-04-28T22:40:23.382Z,49.82
2018-04-28T22:42:54.175Z,49.99
2018-04-28T22:45:25.026Z,49.96
2018-04-28T22:47:56.181Z,50.31
2018-04-28T22:50:27.073Z,50.59
2018-04-28T22:52:58.137Z,51.07
2018-04-28T22:55:29.113Z,50.53
2018-04-28T22:58:00.105Z,50.74
2018-04-28T23:00:45.618Z,50.71
2018-04-28T23:03:14.621Z,50.82
2018-04-28T23:05:43.558Z,50.71
2018-04-28T23:08:12.514Z,51.02
2018-04-28T23:10:41.851Z,50.96
2018-04-28T23:13:10.801Z,50.75
2018-04-28T23:15:39.598Z,50.68
2018-04-28T23:18:08.653Z,50.63
2018-04-28T23:20:39.378Z,50.60
2018-04-28T23:23:10.446Z,50.66
2018-04-28T23:25:41.467Z,50.91
2018-04-28T23:28:12.349Z,50.66
2018-04-28T23:30:43.099Z,50.68
2018-04-28T23:33:14.142Z,50.80
2018-04-28T23:35:45.031Z,50.90
2018-04-28T23:38:16.171Z,50.95
2018-04-28T23:40:47.120Z,51.45
2018-04-28T23:43:18.181Z,52.16
2018-04-28T23:45:49.108Z,52.84
2018-04-28T23:48:20.354Z,53.43
2018-04-28T23:50:51.090Z,54.20
2018-04-28T23:53:21.889Z,54.56
2018-04-28T23:55:52.595Z,54.85
2018-04-28T23:58:23.385Z,55.32
